Terminal Aerodrome Forecast
Issued by NWS

Home | Current Version | Previous Version | Text Only | Print | Product List | Glossary On
Versions: 1 2 3 4 5 6 7 8 9 10 11 12 13 14
000
FTUS45 KABQ 231100
TAFTCC
TAF
KTCC 231128Z 2312/2412 21005KT P6SM FEW015
      TEMPO 2312/2315 4SM BR BKN015 OVC040
     FM231500 21010G20KT P6SM BKN080
     FM231800 24015G25KT P6SM BKN080
     FM240100 21010KT P6SM SCT080
     FM240600 24010KT P6SM VCFG FEW015=

USA.gov is the U.S. government's official web portal to all federal, state and local government web resources and services.